sensor_id;sensor_type;location;lat;lon;timestamp;P1;P4;P2;P0;N10;N4;N25;N1;N05;TS
77661;SPS30;67292;52.136;5.424;2023-03-24T00:00:14;3.42;3.42;3.41;3.22;25.70;25.69;25.68;25.59;22.29;0.50
77661;SPS30;67292;52.136;5.424;2023-03-24T00:02:45;3.58;3.58;3.57;3.37;26.87;26.86;26.86;26.75;23.29;0.51
77661;SPS30;67292;52.136;5.424;2023-03-24T00:05:14;3.43;3.43;3.43;3.24;25.83;25.82;25.82;25.72;22.41;0.50
77661;SPS30;67292;52.136;5.424;2023-03-24T00:07:46;3.48;3.48;3.48;3.28;26.21;26.20;26.20;26.10;22.74;0.50
77661;SPS30;67292;52.136;5.424;2023-03-24T00:10:18;3.54;3.54;3.54;3.34;26.69;26.69;26.68;26.59;23.17;0.50
77661;SPS30;67292;52.136;5.424;2023-03-24T00:12:45;3.74;3.73;3.73;3.52;28.11;28.10;28.10;27.99;24.38;0.50
77661;SPS30;67292;52.136;5.424;2023-03-24T00:15:15;3.59;3.59;3.58;3.38;26.97;26.97;26.96;26.85;23.39;0.50
77661;SPS30;67292;52.136;5.424;2023-03-24T00:17:45;3.80;3.79;3.78;3.57;28.50;28.50;28.49;28.38;24.71;0.50
77661;SPS30;67292;52.136;5.424;2023-03-24T00:20:17;3.43;3.42;3.41;3.21;25.64;25.64;25.63;25.53;22.22;0.50
77661;SPS30;67292;52.136;5.424;2023-03-24T00:22:46;3.34;3.34;3.34;3.16;25.23;25.22;25.22;25.13;21.90;0.48
77661;SPS30;67292;52.136;5.424;2023-03-24T00:25:22;3.54;3.54;3.54;3.35;26.73;26.72;26.72;26.62;23.19;0.49
77661;SPS30;67292;52.136;5.424;2023-03-24T00:28:01;3.66;3.66;3.66;3.45;27.55;27.54;27.54;27.43;23.90;0.50
77661;SPS30;67292;52.136;5.424;2023-03-24T00:30:32;3.65;3.65;3.65;3.45;27.57;27.57;27.56;27.46;23.93;0.48
77661;SPS30;67292;52.136;5.424;2023-03-24T00:33:00;3.72;3.72;3.72;3.52;28.07;28.07;28.06;27.96;24.37;0.48
77661;SPS30;67292;52.136;5.424;2023-03-24T00:35:27;3.67;3.67;3.67;3.47;27.68;27.67;27.67;27.57;24.02;0.49
77661;SPS30;67292;52.136;5.424;2023-03-24T00:37:54;3.90;3.90;3.90;3.68;29.42;29.41;29.40;29.30;25.54;0.47
77661;SPS30;67292;52.136;5.424;2023-03-24T00:40:20;3.72;3.72;3.71;3.51;28.01;28.01;28.00;27.90;24.30;0.50
77661;SPS30;67292;52.136;5.424;2023-03-24T00:42:48;3.13;3.13;3.13;2.96;23.62;23.61;23.61;23.52;20.49;0.49
77661;SPS30;67292;52.136;5.424;2023-03-24T00:45:19;3.32;3.32;3.32;3.14;25.07;25.06;25.06;24.97;21.76;0.47
77661;SPS30;67292;52.136;5.424;2023-03-24T00:47:49;3.59;3.59;3.59;3.39;27.06;27.06;27.05;26.96;23.49;0.48
77661;SPS30;67292;52.136;5.424;2023-03-24T00:50:19;3.53;3.53;3.53;3.34;26.67;26.66;26.66;26.57;23.15;0.47
77661;SPS30;67292;52.136;5.424;2023-03-24T00:52:52;4.01;4.01;4.01;3.79;30.30;30.29;30.29;30.18;26.30;0.49
77661;SPS30;67292;52.136;5.424;2023-03-24T00:55:20;3.73;3.73;3.72;3.51;28.04;28.04;28.03;27.93;24.33;0.50
77661;SPS30;67292;52.136;5.424;2023-03-24T00:57:48;3.67;3.67;3.66;3.46;27.61;27.60;27.60;27.49;23.95;0.50
77661;SPS30;67292;52.136;5.424;2023-03-24T01:00:17;3.82;3.82;3.81;3.59;28.67;28.66;28.65;28.54;24.85;0.49
77661;SPS30;67292;52.136;5.424;2023-03-24T01:02:47;3.83;3.83;3.81;3.59;28.69;28.69;28.68;28.56;24.87;0.50
77661;SPS30;67292;52.136;5.424;2023-03-24T01:05:20;4.19;4.19;4.19;3.95;31.56;31.55;31.54;31.43;27.38;0.49
77661;SPS30;67292;52.136;5.424;2023-03-24T01:07:49;3.98;3.98;3.97;3.75;29.97;29.97;29.96;29.85;26.00;0.50
77661;SPS30;67292;52.136;5.424;2023-03-24T01:10:21;4.03;4.03;4.02;3.80;30.30;30.30;30.29;30.18;26.29;0.50
77661;SPS30;67292;52.136;5.424;2023-03-24T01:12:55;4.28;4.28;4.27;4.03;32.22;32.21;32.20;32.08;27.95;0.50
77661;SPS30;67292;52.136;5.424;2023-03-24T01:15:25;4.16;4.15;4.14;3.90;31.14;31.13;31.12;31.00;26.99;0.49
77661;SPS30;67292;52.136;5.424;2023-03-24T01:17:54;4.03;4.03;4.03;3.81;30.45;30.44;30.43;30.33;26.43;0.49
77661;SPS30;67292;52.136;5.424;2023-03-24T01:20:22;4.24;4.24;4.23;3.99;31.89;31.88;31.87;31.75;27.66;0.50
77661;SPS30;67292;52.136;5.424;2023-03-24T01:22:50;4.05;4.05;4.04;3.82;30.48;30.48;30.47;30.35;26.44;0.49
77661;SPS30;67292;52.136;5.424;2023-03-24T01:25:18;4.10;4.10;4.09;3.87;30.87;30.86;30.85;30.74;26.78;0.49
77661;SPS30;67292;52.136;5.424;2023-03-24T01:27:48;4.04;4.03;4.02;3.80;30.31;30.30;30.29;30.18;26.28;0.50
77661;SPS30;67292;52.136;5.424;2023-03-24T01:30:25;4.09;4.08;4.05;3.81;30.39;30.39;30.37;30.24;26.30;0.50
77661;SPS30;67292;52.136;5.424;2023-03-24T01:32:53;4.30;4.30;4.28;4.03;32.16;32.15;32.14;32.01;27.86;0.50
77661;SPS30;67292;52.136;5.424;2023-03-24T01:35:20;4.16;4.16;4.16;3.93;31.35;31.34;31.33;31.22;27.20;0.49
77661;SPS30;67292;52.136;5.424;2023-03-24T01:37:48;4.03;4.03;4.03;3.81;30.40;30.40;30.39;30.29;26.39;0.48
77661;SPS30;67292;52.136;5.424;2023-03-24T01:40:21;4.22;4.22;4.22;3.99;31.84;31.84;31.83;31.72;27.64;0.49
77661;SPS30;67292;52.136;5.424;2023-03-24T01:42:51;4.63;4.61;4.57;4.28;34.18;34.17;34.16;33.99;29.54;0.51
77661;SPS30;67292;52.136;5.424;2023-03-24T01:48:25;4.35;4.34;4.33;4.07;32.52;32.51;32.50;32.36;28.17;0.49
77661;SPS30;67292;52.136;5.424;2023-03-24T01:53:35;4.15;4.15;4.15;3.92;31.32;31.31;31.30;31.19;27.18;0.48
77661;SPS30;67292;52.136;5.424;2023-03-24T01:56:05;4.34;4.34;4.34;4.10;32.75;32.75;32.74;32.62;28.43;0.48
77661;SPS30;67292;52.136;5.424;2023-03-24T01:58:35;4.57;4.57;4.56;4.30;34.37;34.37;34.36;34.23;29.81;0.50
77661;SPS30;67292;52.136;5.424;2023-03-24T02:01:06;4.60;4.59;4.58;4.32;34.50;34.49;34.48;34.35;29.91;0.51
77661;SPS30;67292;52.136;5.424;2023-03-24T02:03:33;4.39;4.38;4.36;4.10;32.72;32.71;32.70;32.56;28.33;0.53
77661;SPS30;67292;52.136;5.424;2023-03-24T02:06:03;4.54;4.53;4.51;4.24;33.87;33.87;33.85;33.71;29.34;0.52
77661;SPS30;67292;52.136;5.424;2023-03-24T02:08:33;4.69;4.69;4.67;4.41;35.17;35.16;35.15;35.01;30.49;0.51
77661;SPS30;67292;52.136;5.424;2023-03-24T02:11:18;4.25;4.24;4.22;3.97;31.69;31.69;31.67;31.54;27.44;0.52
77661;SPS30;67292;52.136;5.424;2023-03-24T02:13:45;4.28;4.27;4.25;4.00;31.96;31.95;31.94;31.81;27.69;0.50
77661;SPS30;67292;52.136;5.424;2023-03-24T02:22:34;4.41;4.41;4.41;4.17;33.30;33.30;33.29;33.18;28.91;0.49
77661;SPS30;67292;52.136;5.424;2023-03-24T02:27:41;4.49;4.49;4.49;4.24;33.89;33.88;33.87;33.76;29.42;0.44
77661;SPS30;67292;52.136;5.424;2023-03-24T02:30:32;4.39;4.39;4.39;4.15;33.12;33.12;33.11;33.00;28.76;0.45
77661;SPS30;67292;52.136;5.424;2023-03-24T02:41:18;3.25;3.25;3.25;3.07;24.55;24.55;24.54;24.46;21.31;0.48
77661;SPS30;67292;52.136;5.424;2023-03-24T02:46:48;2.76;2.76;2.76;2.61;20.84;20.84;20.83;20.76;18.09;0.48
77661;SPS30;67292;52.136;5.424;2023-03-24T02:50:11;2.47;2.47;2.46;2.32;18.56;18.56;18.55;18.48;16.10;0.49
77661;SPS30;67292;52.136;5.424;2023-03-24T02:52:38;2.63;2.63;2.63;2.48;19.80;19.79;19.79;19.71;17.17;0.49
77661;SPS30;67292;52.136;5.424;2023-03-24T02:55:21;2.86;2.86;2.86;2.70;21.57;21.57;21.56;21.49;18.73;0.48
77661;SPS30;67292;52.136;5.424;2023-03-24T02:58:00;2.63;2.63;2.63;2.49;19.85;19.85;19.85;19.78;17.23;0.47
77661;SPS30;67292;52.136;5.424;2023-03-24T03:03:13;2.28;2.28;2.28;2.15;17.19;17.19;17.18;17.12;14.92;0.47
77661;SPS30;67292;52.136;5.424;2023-03-24T03:05:52;1.86;1.86;1.86;1.76;14.06;14.05;14.05;14.00;12.20;0.49
77661;SPS30;67292;52.136;5.424;2023-03-24T03:08:26;1.70;1.69;1.69;1.59;12.67;12.67;12.66;12.61;10.97;0.51
77661;SPS30;67292;52.136;5.424;2023-03-24T03:10:57;1.69;1.68;1.66;1.54;12.30;12.30;12.29;12.22;10.60;0.53
77661;SPS30;67292;52.136;5.424;2023-03-24T03:13:33;1.51;1.50;1.46;1.34;10.74;10.74;10.72;10.64;9.20;0.53
77661;SPS30;67292;52.136;5.424;2023-03-24T03:16:10;1.95;1.91;1.82;1.63;13.02;13.01;12.98;12.84;11.01;0.55
77661;SPS30;67292;52.136;5.424;2023-03-24T03:19:00;2.07;2.01;1.87;1.62;12.97;12.96;12.92;12.71;10.80;0.58
77661;SPS30;67292;52.136;5.424;2023-03-24T03:21:36;1.90;1.83;1.68;1.42;11.39;11.38;11.34;11.12;9.39;0.59
77661;SPS30;67292;52.136;5.424;2023-03-24T03:24:21;2.40;2.30;2.07;1.71;13.65;13.63;13.57;13.25;11.09;0.59
77661;SPS30;67292;52.136;5.424;2023-03-24T03:26:57;2.42;2.28;2.00;1.56;12.51;12.49;12.41;12.02;9.88;0.64
77661;SPS30;67292;52.136;5.424;2023-03-24T03:29:30;2.50;2.34;2.00;1.51;12.10;12.08;11.98;11.53;9.35;0.67
77661;SPS30;67292;52.136;5.424;2023-03-24T03:32:02;2.43;2.25;1.90;1.40;11.22;11.20;11.10;10.62;8.53;0.70
77661;SPS30;67292;52.136;5.424;2023-03-24T03:34:36;3.05;2.81;2.33;1.66;13.31;13.28;13.15;12.51;9.92;0.71
77661;SPS30;67292;52.136;5.424;2023-03-24T03:39:39;2.88;2.67;2.24;1.63;13.11;13.08;12.97;12.39;9.92;0.71
77661;SPS30;67292;52.136;5.424;2023-03-24T03:42:24;2.45;2.29;1.95;1.46;11.72;11.70;11.61;11.15;9.02;0.69
77661;SPS30;67292;52.136;5.424;2023-03-24T03:44:50;2.86;2.66;2.25;1.66;13.35;13.32;13.21;12.66;10.19;0.69
77661;SPS30;67292;52.136;5.424;2023-03-24T03:47:18;2.99;2.76;2.29;1.63;13.11;13.08;12.95;12.32;9.77;0.72
77661;SPS30;67292;52.136;5.424;2023-03-24T03:49:48;3.57;3.27;2.68;1.85;14.86;14.82;14.66;13.87;10.86;0.73
77661;SPS30;67292;52.136;5.424;2023-03-24T03:52:16;3.48;3.19;2.59;1.77;14.20;14.17;14.00;13.21;10.28;0.74
77661;SPS30;67292;52.136;5.424;2023-03-24T03:54:43;3.40;3.11;2.52;1.71;13.75;13.72;13.56;12.78;9.92;0.74
77661;SPS30;67292;52.136;5.424;2023-03-24T03:57:11;3.74;3.42;2.75;1.85;14.82;14.78;14.60;13.73;10.59;0.75
77661;SPS30;67292;52.136;5.424;2023-03-24T03:59:39;4.13;3.76;3.00;1.97;15.81;15.76;15.55;14.55;11.11;0.76
77661;SPS30;67292;52.136;5.424;2023-03-24T04:07:57;4.55;4.21;3.50;2.49;20.00;19.96;19.76;18.81;14.92;0.74
77661;SPS30;67292;52.136;5.424;2023-03-24T04:13:27;4.61;4.30;3.66;2.73;21.87;21.83;21.65;20.78;16.79;0.69
77661;SPS30;67292;52.136;5.424;2023-03-24T04:16:13;5.33;4.96;4.18;3.07;24.62;24.57;24.36;23.32;18.72;0.70
77661;SPS30;67292;52.136;5.424;2023-03-24T04:19:00;4.56;4.23;3.55;2.58;20.71;20.67;20.48;19.57;15.65;0.71
77661;SPS30;67292;52.136;5.424;2023-03-24T04:27:05;4.55;4.21;3.52;2.53;20.32;20.27;20.09;19.15;15.26;0.73
77661;SPS30;67292;52.136;5.424;2023-03-24T04:35:33;4.74;4.34;3.51;2.38;19.10;19.05;18.83;17.74;13.75;0.75
77661;SPS30;67292;52.136;5.424;2023-03-24T04:38:13;4.80;4.40;3.58;2.45;19.67;19.61;19.39;18.31;14.26;0.75
77661;SPS30;67292;52.136;5.424;2023-03-24T04:40:48;5.04;4.63;3.78;2.60;20.90;20.85;20.62;19.50;15.24;0.74
77661;SPS30;67292;52.136;5.424;2023-03-24T04:43:22;5.81;5.33;4.34;2.97;23.85;23.79;23.52;22.21;17.31;0.74
77661;SPS30;67292;52.136;5.424;2023-03-24T04:46:02;5.69;5.23;4.28;2.96;23.80;23.74;23.48;22.22;17.41;0.73
77661;SPS30;67292;52.136;5.424;2023-03-24T04:48:32;5.39;4.95;4.04;2.78;22.35;22.29;22.04;20.84;16.29;0.71
77661;SPS30;67292;52.136;5.424;2023-03-24T04:50:59;5.40;4.94;4.02;2.74;21.98;21.93;21.67;20.45;15.90;0.70
77661;SPS30;67292;52.136;5.424;2023-03-24T04:53:29;5.29;4.87;4.01;2.81;22.59;22.53;22.30;21.16;16.67;0.68
77661;SPS30;67292;52.136;5.424;2023-03-24T04:55:57;5.72;5.26;4.30;2.98;23.89;23.83;23.57;22.31;17.46;0.69
77661;SPS30;67292;52.136;5.424;2023-03-24T04:58:51;5.77;5.24;4.18;2.73;21.94;21.87;21.58;20.18;15.38;0.74
77661;SPS30;67292;52.136;5.424;2023-03-24T05:01:18;6.57;5.96;4.71;3.02;24.28;24.20;23.87;22.23;16.78;0.76
77661;SPS30;67292;52.136;5.424;2023-03-24T05:03:47;6.69;6.08;4.82;3.13;25.18;25.10;24.76;23.12;17.56;0.75
77661;SPS30;67292;52.136;5.424;2023-03-24T05:06:15;6.24;5.69;4.55;3.00;24.10;24.03;23.72;22.23;17.01;0.75
77661;SPS30;67292;52.136;5.424;2023-03-24T05:08:42;5.92;5.36;4.23;2.71;21.81;21.74;21.43;19.96;15.06;0.78
77661;SPS30;67292;52.136;5.424;2023-03-24T05:11:09;6.37;5.76;4.52;2.85;22.97;22.89;22.55;20.93;15.68;0.79
77661;SPS30;67292;52.136;5.424;2023-03-24T05:13:36;6.75;6.08;4.72;2.91;23.46;23.37;23.01;21.24;15.71;0.79
77661;SPS30;67292;52.136;5.424;2023-03-24T05:16:03;7.59;6.80;5.18;3.06;24.65;24.55;24.12;22.03;15.86;0.83
77661;SPS30;67292;52.136;5.424;2023-03-24T05:18:30;8.08;7.18;5.33;2.94;23.74;23.62;23.13;20.76;14.29;0.87
77661;SPS30;67292;52.136;5.424;2023-03-24T05:20:56;8.28;7.35;5.44;2.96;23.89;23.78;23.26;20.81;14.19;0.90
77661;SPS30;67292;52.136;5.424;2023-03-24T05:23:23;7.83;6.96;5.17;2.84;22.92;22.81;22.33;20.03;13.75;0.87
77661;SPS30;67292;52.136;5.424;2023-03-24T05:25:50;8.03;7.12;5.26;2.85;22.99;22.88;22.38;20.00;13.59;0.87
77661;SPS30;67292;52.136;5.424;2023-03-24T05:28:16;7.78;6.90;5.10;2.76;22.32;22.20;21.72;19.41;13.20;0.89
77661;SPS30;67292;52.136;5.424;2023-03-24T05:30:43;7.70;6.82;5.02;2.69;21.76;21.65;21.17;18.86;12.72;0.90
77661;SPS30;67292;52.136;5.424;2023-03-24T05:33:10;7.60;6.72;4.93;2.62;21.18;21.07;20.59;18.30;12.26;0.91
77661;SPS30;67292;52.136;5.424;2023-03-24T05:35:36;8.78;7.76;5.69;3.00;24.27;24.14;23.59;20.93;13.94;0.92
77661;SPS30;67292;52.136;5.424;2023-03-24T05:38:03;9.28;8.16;5.89;2.97;24.02;23.88;23.27;20.36;13.04;0.95
77661;SPS30;67292;52.136;5.424;2023-03-24T05:40:30;8.63;7.59;5.46;2.74;22.16;22.03;21.46;18.75;11.95;0.95
77661;SPS30;67292;52.136;5.424;2023-03-24T05:42:57;8.96;7.90;5.71;2.91;23.51;23.38;22.79;20.00;12.92;0.94
77661;SPS30;67292;52.136;5.424;2023-03-24T05:45:23;9.12;8.06;5.89;3.09;24.95;24.82;24.24;21.45;14.21;0.91
77661;SPS30;67292;52.136;5.424;2023-03-24T05:47:51;8.66;7.64;5.56;2.88;23.26;23.13;22.57;19.91;13.05;0.92
77661;SPS30;67292;52.136;5.424;2023-03-24T05:50:17;9.79;8.61;6.19;3.10;25.11;24.97;24.32;21.24;13.53;0.95
77661;SPS30;67292;52.136;5.424;2023-03-24T05:52:44;10.74;9.43;6.76;3.34;27.00;26.84;26.13;22.71;14.27;0.97
77661;SPS30;67292;52.136;5.424;2023-03-24T05:55:11;11.16;9.81;7.04;3.50;28.32;28.15;27.41;23.88;15.10;0.96
77661;SPS30;67292;52.136;5.424;2023-03-24T05:57:41;10.41;9.14;6.54;3.22;26.08;25.92;25.22;21.91;13.73;0.97
77661;SPS30;67292;52.136;5.424;2023-03-24T06:00:09;11.00;9.69;7.00;3.55;28.74;28.58;27.86;24.43;15.74;0.95
77661;SPS30;67292;52.136;5.424;2023-03-24T06:02:42;9.59;8.43;6.08;3.06;24.74;24.59;23.96;20.95;13.39;0.95
77661;SPS30;67292;52.136;5.424;2023-03-24T06:05:10;10.70;9.43;6.84;3.50;28.32;28.16;27.47;24.15;15.69;0.94
77661;SPS30;67292;52.136;5.424;2023-03-24T06:07:38;9.14;8.07;5.88;3.06;24.75;24.62;24.03;21.23;13.98;0.92
77661;SPS30;67292;52.136;5.424;2023-03-24T06:10:08;10.43;9.17;6.62;3.34;27.00;26.84;26.16;22.89;14.67;0.94
77661;SPS30;67292;52.136;5.424;2023-03-24T06:12:37;10.00;8.81;6.39;3.27;26.47;26.32;25.67;22.58;14.67;0.93
77661;SPS30;67292;52.136;5.424;2023-03-24T06:15:04;9.30;8.22;5.99;3.13;25.27;25.13;24.54;21.69;14.31;0.91
77661;SPS30;67292;52.136;5.424;2023-03-24T06:17:32;9.31;8.23;6.03;3.18;25.68;25.54;24.95;22.13;14.73;0.91
77661;SPS30;67292;52.136;5.424;2023-03-24T06:19:59;9.56;8.46;6.23;3.34;26.98;26.85;26.25;23.38;15.77;0.89
77661;SPS30;67292;52.136;5.424;2023-03-24T06:22:30;9.65;8.55;6.30;3.40;27.45;27.31;26.71;23.83;16.14;0.88
77661;SPS30;67292;52.136;5.424;2023-03-24T06:24:58;8.58;7.61;5.63;3.07;24.80;24.68;24.15;21.62;14.76;0.89
77661;SPS30;67292;52.136;5.424;2023-03-24T06:27:25;8.15;7.26;5.44;3.07;24.73;24.62;24.13;21.79;15.23;0.87
77661;SPS30;67292;52.136;5.424;2023-03-24T06:29:55;8.64;7.70;5.76;3.23;26.09;25.97;25.45;22.96;16.00;0.87
77661;SPS30;67292;52.136;5.424;2023-03-24T06:32:23;8.61;7.67;5.75;3.24;26.13;26.01;25.49;23.02;16.09;0.87
77661;SPS30;67292;52.136;5.424;2023-03-24T06:34:51;8.53;7.62;5.75;3.30;26.64;26.52;26.02;23.61;16.72;0.85
77661;SPS30;67292;52.136;5.424;2023-03-24T06:37:20;8.23;7.38;5.64;3.35;26.99;26.89;26.42;24.17;17.47;0.84
77661;SPS30;67292;52.136;5.424;2023-03-24T06:39:48;8.12;7.30;5.62;3.41;27.43;27.32;26.87;24.70;18.07;0.82
77661;SPS30;67292;52.136;5.424;2023-03-24T06:42:15;7.05;6.37;4.96;3.09;24.85;24.76;24.38;22.55;16.75;0.81
77661;SPS30;67292;52.136;5.424;2023-03-24T06:44:43;7.89;7.12;5.54;3.44;27.72;27.62;27.20;25.15;18.66;0.80
77661;SPS30;67292;52.136;5.424;2023-03-24T06:47:10;8.01;7.22;5.61;3.46;27.86;27.76;27.33;25.23;18.66;0.80
77661;SPS30;67292;52.136;5.424;2023-03-24T06:49:36;7.33;6.69;5.38;3.59;28.87;28.79;28.43;26.71;20.58;0.75
77661;SPS30;67292;52.136;5.424;2023-03-24T06:52:03;6.91;6.31;5.08;3.39;27.27;27.19;26.86;25.24;19.45;0.74
77661;SPS30;67292;52.136;5.424;2023-03-24T06:54:30;6.97;6.38;5.17;3.50;28.09;28.02;27.69;26.08;20.22;0.73
77661;SPS30;67292;52.136;5.424;2023-03-24T06:56:57;6.99;6.41;5.21;3.56;28.62;28.55;28.22;26.64;20.75;0.72
77661;SPS30;67292;52.136;5.424;2023-03-24T06:59:26;6.78;6.25;5.17;3.65;29.29;29.22;28.93;27.48;21.72;0.71
77661;SPS30;67292;52.136;5.424;2023-03-24T07:01:53;7.03;6.48;5.36;3.79;30.41;30.34;30.04;28.55;22.56;0.71
77661;SPS30;67292;52.136;5.424;2023-03-24T07:04:20;7.00;6.44;5.30;3.71;29.79;29.72;29.41;27.89;21.95;0.71
77661;SPS30;67292;52.136;5.424;2023-03-24T07:06:51;6.40;5.94;4.98;3.62;29.03;28.97;28.71;27.42;21.93;0.67
77661;SPS30;67292;52.136;5.424;2023-03-24T07:09:38;5.82;5.46;4.73;3.63;29.08;29.04;28.83;27.82;22.73;0.61
77661;SPS30;67292;52.136;5.424;2023-03-24T07:12:05;6.16;5.79;5.03;3.90;31.22;31.17;30.97;29.92;24.52;0.61
77661;SPS30;67292;52.136;5.424;2023-03-24T07:14:32;6.29;5.88;5.03;3.78;30.32;30.27;30.03;28.87;23.41;0.65
77661;SPS30;67292;52.136;5.424;2023-03-24T07:16:58;5.83;5.48;4.77;3.70;29.67;29.63;29.43;28.45;23.33;0.63
77661;SPS30;67292;52.136;5.424;2023-03-24T07:19:25;5.04;4.77;4.24;3.39;27.18;27.14;26.99;26.23;21.75;0.63
77661;SPS30;67292;52.136;5.424;2023-03-24T07:21:52;5.80;5.48;4.82;3.80;30.40;30.35;30.17;29.24;24.11;0.64
77661;SPS30;67292;52.136;5.424;2023-03-24T07:24:19;5.86;5.52;4.82;3.76;30.08;30.03;29.84;28.87;23.71;0.64
77661;SPS30;67292;52.136;5.424;2023-03-24T07:26:45;6.44;6.03;5.20;3.96;31.72;31.66;31.44;30.29;24.66;0.65
77661;SPS30;67292;52.136;5.424;2023-03-24T07:29:12;5.90;5.54;4.82;3.73;29.89;29.84;29.65;28.65;23.47;0.64
77661;SPS30;67292;52.136;5.424;2023-03-24T07:31:38;6.02;5.67;4.94;3.84;30.78;30.73;30.53;29.52;24.22;0.63
77661;SPS30;67292;52.136;5.424;2023-03-24T07:34:06;5.90;5.52;4.74;3.59;28.74;28.69;28.48;27.41;22.27;0.64
77661;SPS30;67292;52.136;5.424;2023-03-24T07:36:33;6.03;5.64;4.83;3.65;29.28;29.23;29.01;27.91;22.67;0.64
77661;SPS30;67292;52.136;5.424;2023-03-24T07:39:00;5.88;5.51;4.75;3.63;29.08;29.03;28.82;27.79;22.65;0.64
77661;SPS30;67292;52.136;5.424;2023-03-24T07:41:27;6.45;6.00;5.10;3.79;30.39;30.33;30.09;28.86;23.28;0.64
77661;SPS30;67292;52.136;5.424;2023-03-24T07:43:54;6.19;5.76;4.87;3.59;28.76;28.70;28.46;27.26;21.91;0.66
77661;SPS30;67292;52.136;5.424;2023-03-24T07:46:21;6.59;6.14;5.23;3.91;31.36;31.30;31.05;29.82;24.11;0.66
77661;SPS30;67292;52.136;5.424;2023-03-24T07:48:48;6.03;5.64;4.84;3.66;29.30;29.24;29.02;27.93;22.68;0.65
77661;SPS30;67292;52.136;5.424;2023-03-24T07:51:14;6.30;5.89;5.06;3.84;30.79;30.74;30.51;29.38;23.89;0.67
77661;SPS30;67292;52.136;5.424;2023-03-24T07:53:43;6.16;5.76;4.94;3.73;29.91;29.86;29.64;28.51;23.15;0.66
77661;SPS30;67292;52.136;5.424;2023-03-24T07:56:10;5.80;5.41;4.61;3.44;27.62;27.56;27.35;26.26;21.23;0.66
77661;SPS30;67292;52.136;5.424;2023-03-24T07:58:37;6.03;5.62;4.78;3.56;28.54;28.49;28.26;27.12;21.89;0.66
77661;SPS30;67292;52.136;5.424;2023-03-24T08:01:07;6.06;5.67;4.87;3.70;29.64;29.59;29.37;28.28;23.00;0.65
77661;SPS30;67292;52.136;5.424;2023-03-24T08:03:37;6.31;5.89;5.04;3.79;30.34;30.29;30.05;28.88;23.40;0.66
77661;SPS30;67292;52.136;5.424;2023-03-24T08:06:07;6.19;5.79;4.98;3.77;30.23;30.18;29.96;28.84;23.44;0.65
77661;SPS30;67292;52.136;5.424;2023-03-24T08:08:34;6.92;6.43;5.42;3.98;31.91;31.85;31.58;30.22;24.25;0.68
77661;SPS30;67292;52.136;5.424;2023-03-24T08:11:02;5.81;5.42;4.63;3.48;27.88;27.83;27.62;26.54;21.50;0.67
77661;SPS30;67292;52.136;5.424;2023-03-24T08:13:29;6.28;5.85;4.97;3.70;29.62;29.57;29.33;28.13;22.70;0.66
77661;SPS30;67292;52.136;5.424;2023-03-24T08:15:57;5.62;5.26;4.51;3.41;27.33;27.28;27.07;26.05;21.16;0.63
77661;SPS30;67292;52.136;5.424;2023-03-24T08:18:24;4.98;4.68;4.07;3.16;25.30;25.26;25.09;24.25;19.88;0.62
77661;SPS30;67292;52.136;5.424;2023-03-24T08:20:53;5.70;5.32;4.55;3.43;27.50;27.45;27.24;26.19;21.24;0.64
77661;SPS30;67292;52.136;5.424;2023-03-24T08:23:23;5.52;5.14;4.36;3.24;25.99;25.94;25.73;24.68;19.91;0.66
77661;SPS30;67292;52.136;5.424;2023-03-24T08:25:50;6.24;5.77;4.81;3.46;27.78;27.72;27.46;26.18;20.84;0.68
77661;SPS30;67292;52.136;5.424;2023-03-24T08:28:17;5.58;5.17;4.32;3.12;25.03;24.97;24.74;23.61;18.82;0.69
77661;SPS30;67292;52.136;5.424;2023-03-24T08:30:44;5.64;5.20;4.31;3.06;24.58;24.52;24.28;23.09;18.28;0.70
77661;SPS30;67292;52.136;5.424;2023-03-24T08:33:12;6.09;5.61;4.64;3.28;26.34;26.28;26.01;24.72;19.53;0.69
77661;SPS30;67292;52.136;5.424;2023-03-24T08:35:40;5.84;5.39;4.49;3.21;25.74;25.68;25.44;24.22;19.23;0.69
77661;SPS30;67292;52.136;5.424;2023-03-24T08:38:08;5.70;5.28;4.42;3.19;25.63;25.57;25.34;24.18;19.29;0.70
77661;SPS30;67292;52.136;5.424;2023-03-24T08:40:36;5.73;5.31;4.46;3.25;26.04;25.98;25.75;24.60;19.68;0.70
77661;SPS30;67292;52.136;5.424;2023-03-24T08:43:05;5.95;5.51;4.60;3.32;26.63;26.57;26.33;25.12;20.02;0.69
77661;SPS30;67292;52.136;5.424;2023-03-24T08:45:34;6.44;5.91;4.84;3.35;26.93;26.87;26.57;25.15;19.71;0.70
77661;SPS30;67292;52.136;5.424;2023-03-24T08:48:02;6.07;5.54;4.45;2.97;23.89;23.82;23.53;22.10;17.02;0.73
77661;SPS30;67292;52.136;5.424;2023-03-24T08:50:32;6.40;5.87;4.79;3.29;26.43;26.37;26.07;24.64;19.23;0.71
77661;SPS30;67292;52.136;5.424;2023-03-24T08:53:02;5.51;5.11;4.30;3.14;25.15;25.10;24.88;23.78;19.05;0.67
77661;SPS30;67292;52.136;5.424;2023-03-24T08:55:29;5.28;4.95;4.27;3.26;26.10;26.05;25.87;24.93;20.32;0.65
77661;SPS30;67292;52.136;5.424;2023-03-24T08:57:56;5.39;5.07;4.42;3.44;27.53;27.49;27.31;26.41;21.67;0.65
77661;SPS30;67292;52.136;5.424;2023-03-24T09:00:23;5.06;4.73;4.05;3.05;24.43;24.39;24.20;23.27;18.87;0.65
77661;SPS30;67292;52.136;5.424;2023-03-24T09:02:51;5.35;4.99;4.24;3.16;25.30;25.26;25.05;24.04;19.40;0.65
77661;SPS30;67292;52.136;5.424;2023-03-24T09:05:20;5.46;5.10;4.36;3.28;26.31;26.26;26.06;25.05;20.30;0.65
77661;SPS30;67292;52.136;5.424;2023-03-24T09:08:06;5.59;5.20;4.41;3.27;26.19;26.14;25.92;24.85;20.02;0.65
77661;SPS30;67292;52.136;5.424;2023-03-24T09:10:34;5.28;4.91;4.16;3.08;24.67;24.62;24.42;23.40;18.84;0.65
77661;SPS30;67292;52.136;5.424;2023-03-24T09:13:01;5.47;5.11;4.37;3.28;26.30;26.25;26.05;25.04;20.29;0.65
77661;SPS30;67292;52.136;5.424;2023-03-24T09:15:29;5.81;5.43;4.65;3.51;28.15;28.10;27.88;26.83;21.78;0.64
77661;SPS30;67292;52.136;5.424;2023-03-24T09:17:56;5.06;4.75;4.10;3.15;25.22;25.17;25.00;24.11;19.69;0.62
77661;SPS30;67292;52.136;5.424;2023-03-24T09:20:23;5.33;4.96;4.20;3.11;24.90;24.85;24.65;23.62;19.02;0.64
77661;SPS30;67292;52.136;5.424;2023-03-24T09:22:50;5.13;4.75;3.99;2.90;23.28;23.23;23.02;22.00;17.59;0.66
77661;SPS30;67292;52.136;5.424;2023-03-24T09:25:18;5.18;4.81;4.06;2.99;23.97;23.92;23.72;22.71;18.25;0.67
77661;SPS30;67292;52.136;5.424;2023-03-24T09:27:45;4.78;4.45;3.79;2.84;22.74;22.69;22.51;21.62;17.48;0.65
77661;SPS30;67292;52.136;5.424;2023-03-24T09:30:14;5.41;5.03;4.25;3.12;25.06;25.01;24.79;23.74;19.07;0.66
77661;SPS30;67292;52.136;5.424;2023-03-24T09:32:43;4.79;4.48;3.85;2.93;23.46;23.42;23.25;22.39;18.21;0.64
77661;SPS30;67292;52.136;5.424;2023-03-24T09:35:10;4.66;4.36;3.74;2.83;22.69;22.65;22.48;21.63;17.57;0.65
77661;SPS30;67292;52.136;5.424;2023-03-24T09:37:37;4.66;4.38;3.80;2.93;23.50;23.47;23.31;22.51;18.42;0.63
77661;SPS30;67292;52.136;5.424;2023-03-24T09:40:04;4.35;4.10;3.57;2.77;22.18;22.14;22.00;21.27;17.44;0.63
77661;SPS30;67292;52.136;5.424;2023-03-24T09:42:34;4.79;4.49;3.89;3.00;24.00;23.96;23.79;22.97;18.77;0.63
77661;SPS30;67292;52.136;5.424;2023-03-24T09:45:09;4.36;4.12;3.65;2.90;23.24;23.20;23.07;22.40;18.53;0.60
77661;SPS30;67292;52.136;5.424;2023-03-24T09:47:43;4.44;4.23;3.82;3.14;25.09;25.06;24.95;24.34;20.36;0.58
77661;SPS30;67292;52.136;5.424;2023-03-24T09:50:34;3.99;3.83;3.48;2.90;23.18;23.16;23.06;22.55;18.94;0.59
77661;SPS30;67292;52.136;5.424;2023-03-24T09:53:09;4.37;4.18;3.77;3.11;24.89;24.87;24.75;24.17;20.23;0.59
77661;SPS30;67292;52.136;5.424;2023-03-24T09:56:08;4.07;3.91;3.60;3.04;24.31;24.29;24.20;23.72;20.02;0.58
77661;SPS30;67292;52.136;5.424;2023-03-24T09:58:39;3.83;3.67;3.34;2.78;22.26;22.24;22.15;21.66;18.20;0.60
77661;SPS30;67292;52.136;5.424;2023-03-24T10:01:14;3.76;3.60;3.27;2.71;21.72;21.69;21.60;21.11;17.72;0.59
77661;SPS30;67292;52.136;5.424;2023-03-24T10:03:43;3.60;3.46;3.15;2.63;21.05;21.03;20.95;20.50;17.23;0.58
77661;SPS30;67292;52.136;5.424;2023-03-24T10:15:17;3.27;3.08;2.71;2.14;17.12;17.10;16.99;16.47;13.58;0.61
77661;SPS30;67292;52.136;5.424;2023-03-24T10:21:06;3.65;3.42;2.97;2.28;18.28;18.25;18.13;17.50;14.30;0.63
77661;SPS30;67292;52.136;5.424;2023-03-24T10:23:53;4.38;4.07;3.46;2.57;20.60;20.56;20.40;19.56;15.78;0.67
77661;SPS30;67292;52.136;5.424;2023-03-24T10:29:06;4.23;3.91;3.27;2.36;18.93;18.89;18.72;17.86;14.24;0.68